Time;durP1;ratioP1;P1;durP2;ratioP2;P2;SDS_P1;SDS_P2;PMS_P1;PMS_P2;Temp;Humidity;BMP_temperature;BMP_pressure;BME280_temperature;BME280_humidity;BME280_pressure;Samples;Min_cycle;Max_cycle;Signal;HPM_P1;HPM_P2
2022/07/16 00:02:45;;;;;;;2.60;2.40;;;15.20;99.90;;;;;;5033701;28;20195;-67
2022/07/16 00:05:11;;;;;;;3.00;2.37;;;14.90;99.90;;;;;;5035481;28;20173;-67
2022/07/16 00:07:37;;;;;;;2.50;2.30;;;14.20;99.90;;;;;;5032615;28;20180;-66
2022/07/16 00:10:05;;;;;;;3.97;2.33;;;15.10;99.90;;;;;;5035416;28;20256;-67
2022/07/16 00:12:31;;;;;;;3.37;2.23;;;14.90;99.90;;;;;;5035200;28;20196;-67
2022/07/16 00:14:56;;;;;;;3.33;2.00;;;14.90;99.90;;;;;;5035311;28;20744;-67
2022/07/16 00:17:22;;;;;;;2.87;2.57;;;14.80;99.90;;;;;;5033944;28;20180;-68
2022/07/16 00:19:48;;;;;;;3.30;1.87;;;14.60;99.90;;;;;;5025052;28;20508;-69
2022/07/16 00:22:14;;;;;;;2.00;1.90;;;14.40;99.90;;;;;;5026325;28;20637;-67
2022/07/16 00:24:39;;;;;;;2.57;2.37;;;14.00;99.90;;;;;;5024417;28;20177;-67
2022/07/16 00:27:05;;;;;;;2.40;2.20;;;13.00;99.90;;;;;;5034241;28;20192;-66
2022/07/16 00:29:31;;;;;;;5.90;2.60;;;14.30;99.90;;;;;;5034010;28;20165;-66
2022/07/16 00:31:57;;;;;;;2.90;2.70;;;14.60;99.90;;;;;;5034809;28;20691;-66
2022/07/16 00:34:23;;;;;;;2.47;2.10;;;14.50;99.90;;;;;;5025739;28;20251;-67
2022/07/16 00:36:49;;;;;;;2.70;2.20;;;14.40;99.90;;;;;;5024397;28;20267;-65
2022/07/16 00:39:16;;;;;;;3.93;1.80;;;14.10;99.90;;;;;;5034913;28;20281;-65
2022/07/16 00:41:45;;;;;;;3.83;2.70;;;13.00;99.90;;;;;;5025365;28;20204;-66
2022/07/16 00:44:14;;;;;;;2.03;1.93;;;12.50;99.90;;;;;;5029710;28;20593;-65
2022/07/16 00:46:41;;;;;;;2.37;2.17;;;12.30;99.90;;;;;;5035918;28;20200;-66
2022/07/16 00:49:08;;;;;;;2.40;2.30;;;10.40;99.90;;;;;;5038014;28;20462;-68
2022/07/16 00:51:35;;;;;;;2.87;2.67;;;9.50;99.90;;;;;;5038857;28;20173;-69
2022/07/16 00:54:02;;;;;;;4.03;1.60;;;8.50;99.90;;;;;;5036227;28;20526;-67
2022/07/16 00:56:28;;;;;;;4.63;2.77;;;10.70;99.90;;;;;;5038836;28;20176;-68
2022/07/16 00:58:54;;;;;;;2.77;2.23;;;-18.30;99.90;;;;;;5028200;28;20589;-68
2022/07/16 01:01:21;;;;;;;2.67;2.47;;;-23.10;99.90;;;;;;5029413;28;20180;-68
2022/07/16 01:03:48;;;;;;;3.67;2.43;;;-27.90;99.90;;;;;;5028633;28;20589;-68
2022/07/16 01:06:14;;;;;;;5.23;3.13;;;-25.10;99.90;;;;;;5038552;28;20580;-68
2022/07/16 01:08:45;;;;;;;3.20;2.60;;;-25.30;99.90;;;;;;5038498;28;20179;-68
2022/07/16 01:11:13;;;;;;;4.90;2.87;;;-20.40;99.90;;;;;;5038638;28;20180;-68
2022/07/16 01:13:41;;;;;;;2.70;2.50;;;-28.00;99.90;;;;;;5037454;28;20214;-68
2022/07/16 01:16:08;;;;;;;4.40;2.83;;;-27.90;99.90;;;;;;5028752;28;20243;-68
2022/07/16 01:18:35;;;;;;;1.90;1.80;;;-29.60;99.90;;;;;;5028911;28;20181;-70
2022/07/16 01:21:02;;;;;;;2.17;2.07;;;-30.50;99.90;;;;;;5038359;28;20177;-69
2022/07/16 01:23:28;;;;;;;2.47;2.27;;;-27.70;99.90;;;;;;5028861;28;20576;-69
2022/07/16 01:25:54;;;;;;;5.03;2.30;;;-26.50;99.90;;;;;;5028767;28;20219;-69
2022/07/16 01:28:21;;;;;;;4.03;2.47;;;-24.60;99.90;;;;;;5027253;28;20173;-69
2022/07/16 01:30:48;;;;;;;3.07;2.87;;;-25.70;99.90;;;;;;5028869;28;20176;-69
2022/07/16 01:33:35;;;;;;;3.87;1.77;;;-24.20;99.90;;;;;;5027489;28;20581;-73
2022/07/16 01:36:04;;;;;;;3.30;2.53;;;-24.00;99.90;;;;;;5037623;28;20292;-68
2022/07/16 01:38:30;;;;;;;3.27;2.03;;;-24.50;99.90;;;;;;5037738;28;20193;-68
2022/07/16 01:40:56;;;;;;;5.67;3.80;;;-22.70;99.90;;;;;;5038199;28;20577;-69
2022/07/16 01:43:26;;;;;;;6.07;2.90;;;-26.00;99.90;;;;;;5037659;28;20196;-68
2022/07/16 01:45:54;;;;;;;2.97;2.77;;;-20.40;99.90;;;;;;5037659;28;20193;-70
2022/07/16 01:48:21;;;;;;;3.13;2.83;;;-21.60;99.90;;;;;;5037843;28;20207;-68
2022/07/16 01:50:46;;;;;;;6.23;2.50;;;-26.80;99.90;;;;;;5035309;28;20180;-67
2022/07/16 01:53:13;;;;;;;5.80;2.57;;;-27.80;99.90;;;;;;5036514;28;20238;-68
2022/07/16 01:55:40;;;;;;;2.47;2.30;;;-25.50;99.90;;;;;;5037578;28;20216;-68
2022/07/16 01:58:07;;;;;;;3.17;2.97;;;-22.10;99.90;;;;;;5034972;28;20187;-68
2022/07/16 02:00:33;;;;;;;2.60;2.50;;;-20.50;99.90;;;;;;5037372;28;20271;-68
2022/07/16 02:02:59;;;;;;;3.47;2.70;;;-25.00;99.90;;;;;;5037444;28;20271;-68
2022/07/16 02:05:26;;;;;;;2.30;1.90;;;-22.90;99.90;;;;;;5037516;28;20227;-68
2022/07/16 02:07:52;;;;;;;2.63;2.50;;;-25.10;99.90;;;;;;5037211;28;20291;-68
2022/07/16 02:10:18;;;;;;;3.00;2.70;;;-27.50;99.90;;;;;;5027116;28;20196;-70
2022/07/16 02:12:43;;;;;;;2.70;2.50;;;-31.50;99.90;;;;;;5028469;28;20173;-69
2022/07/16 02:15:10;;;;;;;2.13;2.03;;;-31.80;99.90;;;;;;5026646;28;20277;-68
2022/07/16 02:17:37;;;;;;;3.30;2.40;;;-31.10;99.90;;;;;;5037300;28;20484;-68
2022/07/16 02:20:04;;;;;;;2.90;2.47;;;-31.10;99.90;;;;;;5036235;28;20191;-71
2022/07/16 02:22:30;;;;;;;3.27;2.00;;;-27.60;99.90;;;;;;5035991;28;20219;-69
2022/07/16 02:24:56;;;;;;;3.90;2.70;;;-32.50;99.90;;;;;;5027199;28;20580;-69
2022/07/16 02:27:22;;;;;;;4.03;2.77;;;-31.10;99.90;;;;;;5028102;28;20231;-69
2022/07/16 02:29:47;;;;;;;2.47;2.33;;;-30.40;99.90;;;;;;5025959;28;20188;-74
2022/07/16 02:32:14;;;;;;;2.53;2.33;;;-36.20;99.90;;;;;;5027390;28;20176;-70
2022/07/16 02:34:40;;;;;;;3.23;2.93;;;-34.50;99.90;;;;;;5027577;28;20178;-69
2022/07/16 02:37:05;;;;;;;2.33;2.20;;;-31.20;99.90;;;;;;5037005;28;20227;-69
2022/07/16 02:39:32;;;;;;;2.57;2.37;;;-34.50;99.90;;;;;;5036716;28;20652;-75
2022/07/16 02:41:59;;;;;;;5.07;2.80;;;-32.60;99.90;;;;;;5036925;28;20226;-76
2022/07/16 02:44:25;;;;;;;2.80;2.00;;;-24.90;99.90;;;;;;5036477;28;20180;-76
2022/07/16 02:46:51;;;;;;;2.90;2.70;;;-28.70;99.90;;;;;;5027573;28;20193;-76
2022/07/16 02:49:17;;;;;;;3.07;1.87;;;-22.10;99.90;;;;;;5026863;28;20174;-75
2022/07/16 02:51:42;;;;;;;4.20;2.53;;;-23.00;99.90;;;;;;5036717;28;20183;-76
2022/07/16 02:54:08;;;;;;;1.93;1.83;;;-26.90;99.90;;;;;;5035485;28;20223;-77
2022/07/16 02:56:34;;;;;;;5.53;2.43;;;-29.50;99.90;;;;;;5036703;28;20218;-76
2022/07/16 02:59:00;;;;;;;5.70;2.87;;;-31.60;99.90;;;;;;5036201;28;20647;-77
2022/07/16 03:01:25;;;;;;;4.97;2.53;;;-32.00;99.90;;;;;;5036450;28;20522;-75
2022/07/16 03:03:51;;;;;;;3.50;2.43;;;-23.10;99.90;;;;;;5036315;28;20169;-74
2022/07/16 03:06:17;;;;;;;4.73;2.10;;;-23.00;99.90;;;;;;5036052;28;20195;-75
2022/07/16 03:08:43;;;;;;;3.60;2.60;;;-23.00;99.90;;;;;;5035010;28;20491;-74
2022/07/16 03:11:09;;;;;;;3.70;2.73;;;-20.00;99.90;;;;;;5036385;28;20179;-75
2022/07/16 03:13:35;;;;;;;2.90;2.03;;;-17.40;99.90;;;;;;5036151;28;20173;-77
2022/07/16 03:16:01;;;;;;;3.33;2.30;;;-22.10;99.90;;;;;;5036320;28;20268;-77
2022/07/16 03:18:27;;;;;;;2.63;2.40;;;-24.40;99.90;;;;;;5036003;28;20194;-77
2022/07/16 03:20:53;;;;;;;2.80;2.30;;;-22.40;99.90;;;;;;5026995;28;20560;-71
2022/07/16 03:23:19;;;;;;;4.20;2.30;;;-26.10;99.90;;;;;;5026076;28;20198;-73
2022/07/16 03:25:44;;;;;;;4.97;2.90;;;-25.20;99.90;;;;;;5035718;28;20184;-71
2022/07/16 03:28:10;;;;;;;2.77;1.90;;;-22.00;99.90;;;;;;5035980;28;20702;-74
2022/07/16 03:30:36;;;;;;;5.67;3.13;;;-23.70;99.90;;;;;;5035885;28;20196;-76
2022/07/16 03:33:02;;;;;;;2.40;2.20;;;-17.50;99.90;;;;;;5035937;28;20177;-77
2022/07/16 03:35:29;;;;;;;3.07;2.77;;;-19.70;99.90;;;;;;5035785;28;20192;-75
2022/07/16 03:40:40;;;;;;;2.70;2.50;;;-22.20;99.90;;;;;;5033970;28;20207;-72
2022/07/16 03:43:06;;;;;;;4.77;2.70;;;-24.30;99.90;;;;;;5035843;28;20638;-69
2022/07/16 03:45:33;;;;;;;4.00;2.73;;;-26.40;99.90;;;;;;5024559;28;20664;-69
2022/07/16 03:47:58;;;;;;;4.73;2.70;;;-25.70;99.90;;;;;;5035567;28;20173;-70
2022/07/16 03:50:24;;;;;;;7.97;3.43;;;-26.90;99.90;;;;;;5034577;28;20183;-68
2022/07/16 03:52:50;;;;;;;2.50;2.30;;;-28.10;99.90;;;;;;5035623;28;20179;-74
2022/07/16 03:55:16;;;;;;;2.57;2.37;;;-30.40;99.90;;;;;;5035420;28;20215;-73
2022/07/16 03:57:42;;;;;;;11.70;2.40;;;-30.60;99.90;;;;;;5035638;28;20831;-72
2022/07/16 04:00:09;;;;;;;2.57;2.37;;;-32.30;99.90;;;;;;5035482;28;20180;-74
2022/07/16 04:02:35;;;;;;;2.40;2.30;;;-31.90;99.90;;;;;;5032826;28;20304;-72
2022/07/16 04:05:02;;;;;;;7.73;3.43;;;-27.50;99.90;;;;;;5035423;28;20251;-71
2022/07/16 04:07:27;;;;;;;2.20;2.10;;;-30.10;99.90;;;;;;5035457;28;20172;-69
2022/07/16 04:09:53;;;;;;;2.23;2.10;;;-26.10;99.90;;;;;;5034955;28;20527;-71
2022/07/16 04:12:22;;;;;;;4.93;2.30;;;-29.40;99.90;;;;;;5035542;28;20232;-71
2022/07/16 04:14:49;;;;;;;4.17;2.10;;;-27.10;99.90;;;;;;5035335;28;20203;-74
2022/07/16 04:17:15;;;;;;;3.70;2.53;;;-26.90;99.90;;;;;;5034443;28;20264;-75
2022/07/16 04:19:41;;;;;;;2.73;2.13;;;-33.70;99.90;;;;;;5035378;28;20275;-74
2022/07/16 04:22:06;;;;;;;4.47;2.83;;;-31.30;99.90;;;;;;5024983;28;20726;-74
2022/07/16 04:24:32;;;;;;;4.30;2.50;;;-29.70;99.90;;;;;;5025959;28;20173;-75
2022/07/16 04:26:58;;;;;;;3.57;3.27;;;-31.90;99.90;;;;;;5024707;28;20678;-75
2022/07/16 04:29:24;;;;;;;8.37;3.00;;;-34.40;99.90;;;;;;5035197;28;20480;-75
2022/07/16 04:31:50;;;;;;;5.40;2.80;;;-40.00;99.90;;;;;;5035089;28;20226;-78
2022/07/16 04:34:15;;;;;;;4.50;2.63;;;-36.20;99.90;;;;;;5024391;28;20208;-78
2022/07/16 04:36:41;;;;;;;2.60;2.40;;;-39.00;99.90;;;;;;5025530;28;20636;-77
2022/07/16 04:39:07;;;;;;;5.63;2.40;;;-34.70;99.90;;;;;;5025407;28;20374;-78
2022/07/16 04:41:33;;;;;;;2.27;2.10;;;-30.60;99.90;;;;;;5024048;28;20647;-73
2022/07/16 04:43:58;;;;;;;5.20;2.67;;;-29.70;99.90;;;;;;5035037;28;20184;-77
2022/07/16 04:46:24;;;;;;;3.90;2.33;;;-31.30;99.90;;;;;;5035046;28;20587;-71
2022/07/16 04:48:50;;;;;;;3.00;2.67;;;-27.20;99.90;;;;;;5024439;28;20181;-74
2022/07/16 04:51:15;;;;;;;5.27;2.93;;;-30.90;99.90;;;;;;5026137;28;20164;-75
2022/07/16 04:53:41;;;;;;;2.37;2.27;;;-22.00;99.90;;;;;;5024251;28;20173;-71
2022/07/16 04:56:07;;;;;;;2.47;2.23;;;-33.70;99.90;;;;;;5035076;28;20564;-77
2022/07/16 04:58:33;;;;;;;10.10;2.87;;;-29.60;99.90;;;;;;5035010;28;20185;-77
2022/07/16 05:00:58;;;;;;;2.70;2.50;;;-33.30;99.90;;;;;;5024038;28;20256;-77
2022/07/16 05:03:24;;;;;;;2.57;2.47;;;-34.70;99.90;;;;;;5024211;28;20623;-76
2022/07/16 05:05:50;;;;;;;2.57;2.20;;;-29.10;99.90;;;;;;5025396;28;20184;-76
2022/07/16 05:08:16;;;;;;;8.17;2.10;;;-32.20;99.90;;;;;;5034437;28;20531;-74
2022/07/16 05:10:42;;;;;;;3.17;2.60;;;-34.40;99.90;;;;;;5025587;28;20240;-69
2022/07/16 05:13:10;;;;;;;5.97;2.20;;;-35.50;99.90;;;;;;5024399;28;20236;-69
2022/07/16 05:15:36;;;;;;;4.30;2.77;;;-39.50;99.90;;;;;;5034891;28;20173;-69
2022/07/16 05:18:03;;;;;;;3.93;2.47;;;-36.60;99.90;;;;;;5033705;28;20231;-69
2022/07/16 05:20:29;;;;;;;2.80;1.73;;;-35.50;99.90;;;;;;5034777;28;20177;-70
2022/07/16 05:22:55;;;;;;;2.73;2.57;;;-27.20;99.90;;;;;;5023387;28;20248;-72
2022/07/16 05:25:22;;;;;;;2.63;1.73;;;-22.90;99.90;;;;;;5025605;28;20176;-74
2022/07/16 05:27:48;;;;;;;2.33;2.13;;;-31.30;99.90;;;;;;5024348;28;20529;-70
2022/07/16 05:30:15;;;;;;;5.60;2.93;;;-28.20;99.90;;;;;;5027545;28;20573;-72
2022/07/16 05:32:45;;;;;;;42.70;3.53;;;-38.10;99.90;;;;;;5035517;28;20572;-77
2022/07/16 05:35:15;;;;;;;3.30;2.67;;;-36.20;99.90;;;;;;5038123;28;20182;-74
2022/07/16 05:37:41;;;;;;;5.13;2.67;;;-36.30;99.90;;;;;;5034844;28;20196;-77
2022/07/16 05:40:07;;;;;;;3.27;2.73;;;-37.10;99.90;;;;;;5038061;28;20267;-76
2022/07/16 05:42:33;;;;;;;3.10;2.03;;;-32.80;99.90;;;;;;5027401;28;20561;-69
2022/07/16 05:44:59;;;;;;;7.13;3.57;;;-35.40;99.90;;;;;;5029035;28;20260;-71
2022/07/16 05:47:25;;;;;;;8.93;4.90;;;-25.50;99.90;;;;;;5026249;28;20176;-68
2022/07/16 05:49:50;;;;;;;6.43;4.10;;;-35.70;99.90;;;;;;5036854;28;20177;-68
2022/07/16 05:52:16;;;;;;;6.40;3.67;;;-32.10;99.90;;;;;;5037586;28;20319;-70
2022/07/16 05:54:42;;;;;;;4.73;3.67;;;-33.70;99.90;;;;;;5037710;28;20654;-69
2022/07/16 05:57:08;;;;;;;7.97;4.17;;;-34.50;99.90;;;;;;5027912;28;20188;-73
2022/07/16 05:59:33;;;;;;;6.80;4.53;;;-29.80;99.90;;;;;;5028368;28;20581;-76
2022/07/16 06:01:59;;;;;;;6.20;4.17;;;-32.70;99.90;;;;;;5037317;28;20200;-72
2022/07/16 06:04:25;;;;;;;5.97;3.67;;;-32.60;99.90;;;;;;5037849;28;20541;-74
2022/07/16 06:06:51;;;;;;;6.90;4.57;;;-28.70;99.90;;;;;;5037182;28;20533;-75
2022/07/16 06:09:16;;;;;;;8.90;4.10;;;-37.40;99.50;;;;;;5026678;28;20196;-74
2022/07/16 06:11:42;;;;;;;5.50;3.60;;;-40.00;98.50;;;;;;5028589;28;20215;-68
2022/07/16 06:14:09;;;;;;;5.53;3.50;;;-40.00;98.70;;;;;;5027172;28;20313;-68
2022/07/16 06:16:35;;;;;;;9.77;3.57;;;-40.00;98.90;;;;;;5035049;28;20592;-69
2022/07/16 06:19:01;;;;;;;4.13;3.03;;;-40.00;99.80;;;;;;5036367;28;20217;-67
2022/07/16 06:21:27;;;;;;;4.33;3.17;;;-40.00;99.80;;;;;;5032588;28;20208;-67
2022/07/16 06:23:52;;;;;;;9.00;3.33;;;-40.00;99.40;;;;;;5033749;28;20231;-67
2022/07/16 06:26:18;;;;;;;3.53;3.00;;;-40.00;99.90;;;;;;5033385;28;20585;-67
2022/07/16 06:28:44;;;;;;;2.83;2.63;;;-40.00;99.90;;;;;;5033402;28;20173;-67
2022/07/16 06:31:09;;;;;;;7.93;3.27;;;-40.00;99.90;;;;;;5033142;28;20238;-67
2022/07/16 06:33:35;;;;;;;5.33;2.43;;;-40.00;99.90;;;;;;5032883;28;20181;-67
2022/07/16 06:36:01;;;;;;;5.47;3.27;;;-40.00;99.90;;;;;;5036254;28;20649;-72
2022/07/16 06:38:27;;;;;;;3.47;2.57;;;-40.00;99.90;;;;;;5032511;28;20550;-72
2022/07/16 06:40:53;;;;;;;18.03;4.90;;;-40.00;99.90;;;;;;5028140;28;20611;-73
2022/07/16 06:43:18;;;;;;;2.53;2.33;;;-40.00;99.90;;;;;;5017842;28;20205;-69
2022/07/16 06:45:44;;;;;;;4.33;3.30;;;-40.00;99.90;;;;;;5017452;28;20220;-69
2022/07/16 06:48:10;;;;;;;4.60;2.43;;;-40.00;99.90;;;;;;5017535;28;20205;-67
2022/07/16 06:50:36;;;;;;;4.63;3.57;;;-40.00;99.90;;;;;;5016924;28;20173;-68
2022/07/16 06:53:02;;;;;;;5.00;2.90;;;-40.00;99.90;;;;;;5017201;28;20273;-68
2022/07/16 06:55:28;;;;;;;5.53;2.90;;;-40.00;99.90;;;;;;5017157;28;20181;-66
2022/07/16 06:57:54;;;;;;;5.93;2.40;;;-40.00;99.90;;;;;;5023179;28;20191;-67
2022/07/16 07:00:19;;;;;;;5.33;2.40;;;-40.00;99.90;;;;;;5029448;28;20176;-68
2022/07/16 07:02:45;;;;;;;4.80;3.10;;;-40.00;99.90;;;;;;5026258;28;20196;-68
2022/07/16 07:05:11;;;;;;;3.23;2.73;;;-40.00;99.90;;;;;;5024142;28;20260;-68
2022/07/16 07:07:37;;;;;;;3.60;3.40;;;-40.00;99.90;;;;;;5024284;28;20177;-68
2022/07/16 07:10:03;;;;;;;4.00;3.60;;;-40.00;99.90;;;;;;5026194;28;20173;-69
2022/07/16 07:12:29;;;;;;;2.90;2.70;;;-40.00;99.90;;;;;;5024400;28;20679;-69
2022/07/16 07:14:55;;;;;;;4.47;3.50;;;-40.00;99.90;;;;;;5034924;28;20176;-69
2022/07/16 07:17:21;;;;;;;4.93;4.33;;;-40.00;99.90;;;;;;5034657;28;20287;-73
2022/07/16 07:19:47;;;;;;;6.00;3.03;;;-40.00;99.90;;;;;;5033771;28;20591;-69
2022/07/16 07:22:12;;;;;;;3.50;3.20;;;-40.00;99.90;;;;;;5035360;28;20258;-72
2022/07/16 07:24:38;;;;;;;5.90;3.20;;;-40.00;99.90;;;;;;5035800;28;20172;-73
2022/07/16 07:27:05;;;;;;;3.83;3.43;;;-40.00;99.90;;;;;;5024688;28;20228;-74
2022/07/16 07:29:31;;;;;;;5.97;4.20;;;-40.00;99.90;;;;;;5026783;28;20176;-79
2022/07/16 07:31:57;;;;;;;7.07;5.17;;;-40.00;99.90;;;;;;5026249;28;20294;-70
2022/07/16 07:34:23;;;;;;;4.23;3.83;;;-40.00;99.90;;;;;;5024828;28;20179;-70
2022/07/16 07:36:49;;;;;;;4.63;3.73;;;-40.00;99.90;;;;;;5027058;28;20589;-69
2022/07/16 07:39:14;;;;;;;9.53;4.83;;;-40.00;99.90;;;;;;5025465;28;20216;-76
2022/07/16 07:41:41;;;;;;;6.23;4.37;;;-40.00;99.90;;;;;;5035841;28;20205;-74
2022/07/16 07:44:07;;;;;;;4.83;4.43;;;-40.00;99.90;;;;;;5035700;28;20180;-77
2022/07/16 07:46:33;;;;;;;4.30;3.33;;;-40.00;99.90;;;;;;5035665;28;20196;-75
2022/07/16 07:48:59;;;;;;;4.73;4.27;;;-40.00;99.10;;;;;;5025230;28;20176;-72
2022/07/16 07:51:24;;;;;;;9.27;5.60;;;-40.00;99.20;;;;;;5026725;28;20187;-73
2022/07/16 07:53:50;;;;;;;8.33;5.17;;;-40.00;99.90;;;;;;5024894;28;20178;-69
2022/07/16 07:56:16;;;;;;;8.97;3.87;;;-40.00;99.90;;;;;;5035494;28;20173;-74
2022/07/16 07:58:41;;;;;;;4.47;4.10;;;-40.00;99.90;;;;;;5035514;28;20169;-68
2022/07/16 08:01:07;;;;;;;5.57;3.97;;;-40.00;99.90;;;;;;5024445;28;20206;-71
2022/07/16 08:03:33;;;;;;;4.07;3.57;;;-40.00;98.30;;;;;;5035149;28;20286;-68
2022/07/16 08:05:59;;;;;;;3.97;3.70;;;-40.00;98.80;;;;;;5035290;28;20172;-73
2022/07/16 08:08:25;;;;;;;5.57;4.20;;;-40.00;93.30;;;;;;5024614;28;20184;-72
2022/07/16 08:10:50;;;;;;;3.70;3.40;;;-40.00;96.00;;;;;;5026467;28;20540;-70
2022/07/16 08:13:17;;;;;;;7.67;3.40;;;-40.00;95.70;;;;;;5025183;28;20185;-70
2022/07/16 08:15:43;;;;;;;3.47;3.37;;;-40.00;94.80;;;;;;5023561;28;20258;-75
2022/07/16 08:18:09;;;;;;;4.07;3.67;;;-40.00;94.10;;;;;;5026380;28;20212;-71
2022/07/16 08:20:35;;;;;;;3.80;3.50;;;-40.00;93.40;;;;;;5023682;28;20200;-69
2022/07/16 08:23:01;;;;;;;3.43;3.20;;;-22.50;99.60;;;;;;5035319;28;20208;-70
2022/07/16 08:25:44;;;;;;;4.30;4.00;;;21.20;99.90;;;;;;5035429;28;20540;-69
2022/07/16 08:28:14;;;;;;;3.73;3.43;;;21.40;99.90;;;;;;5035198;28;20172;-70
2022/07/16 08:30:41;;;;;;;4.23;3.10;;;21.30;99.90;;;;;;5035047;28;20169;-68
2022/07/16 08:33:07;;;;;;;4.43;4.13;;;21.30;99.90;;;;;;5032719;28;20267;-68
2022/07/16 08:35:33;;;;;;;3.00;2.90;;;21.30;99.90;;;;;;5031053;28;20623;-69
2022/07/16 08:37:59;;;;;;;5.17;4.00;;;21.30;99.90;;;;;;5029720;28;20188;-68
2022/07/16 08:40:25;;;;;;;5.00;4.07;;;21.50;99.90;;;;;;5018209;28;20185;-69
2022/07/16 08:42:51;;;;;;;3.53;2.80;;;21.60;99.90;;;;;;5022100;28;20587;-66
2022/07/16 08:45:20;;;;;;;4.33;3.40;;;21.60;99.90;;;;;;5034257;28;20275;-69
2022/07/16 08:47:46;;;;;;;3.37;3.13;;;21.60;99.90;;;;;;5034617;28;20199;-68
2022/07/16 08:50:14;;;;;;;3.13;2.93;;;21.60;99.90;;;;;;5024465;28;20181;-69
2022/07/16 08:52:48;;;;;;;2.67;2.50;;;19.40;99.90;;;;;;5017653;28;20569;-67
2022/07/16 08:55:14;;;;;;;3.33;3.07;;;-40.00;90.40;;;;;;5020401;28;20228;-68
2022/07/16 08:57:41;;;;;;;2.70;2.50;;;-40.00;90.30;;;;;;5028550;28;20593;-70
2022/07/16 09:00:12;;;;;;;7.90;2.80;;;-18.50;96.50;;;;;;5034263;28;20188;-69
2022/07/16 09:02:39;;;;;;;2.90;2.70;;;22.20;99.90;;;;;;5032701;28;20208;-74
2022/07/16 09:05:06;;;;;;;2.40;2.20;;;22.40;99.90;;;;;;5038106;28;20176;-71
2022/07/16 09:07:32;;;;;;;2.20;2.10;;;22.40;99.90;;;;;;5033548;28;20279;-68
2022/07/16 09:09:57;;;;;;;7.40;2.30;;;22.30;99.90;;;;;;5035565;28;20176;-68
2022/07/16 09:12:44;;;;;;;2.90;2.23;;;22.60;99.90;;;;;;5037582;28;20193;-76
2022/07/16 09:15:27;;;;;;;2.00;1.90;;;22.60;99.90;;;;;;5036695;28;20195;-73
2022/07/16 09:18:18;;;;;;;4.93;1.63;;;22.60;99.90;;;;;;5037937;28;20230;-69
2022/07/16 09:20:46;;;;;;;1.03;1.03;;;22.50;99.90;;;;;;5036812;28;20184;-69
2022/07/16 09:23:39;;;;;;;0.90;0.90;;;20.60;99.90;;;;;;5038033;28;20227;-73
2022/07/16 09:26:10;;;;;;;1.43;1.13;;;-40.00;78.70;;;;;;5036346;28;20592;-71
2022/07/16 09:28:47;;;;;;;1.50;1.50;;;-40.00;80.00;;;;;;5036604;28;20611;-69
2022/07/16 09:31:39;;;;;;;2.13;1.13;;;-40.00;77.00;;;;;;5037247;28;20176;-72
2022/07/16 09:34:14;;;;;;;1.83;1.00;;;-40.00;78.20;;;;;;5036721;28;20223;-74
2022/07/16 09:37:01;;;;;;;1.27;1.20;;;-40.00;79.10;;;;;;5035763;28;20254;-71
2022/07/16 09:39:29;;;;;;;1.37;1.27;;;-21.10;90.00;;;;;;5036109;28;20638;-82
2022/07/16 09:41:55;;;;;;;1.63;1.53;;;23.20;99.90;;;;;;5037958;28;20204;-69
2022/07/16 09:44:33;;;;;;;2.03;1.93;;;23.30;99.90;;;;;;5037915;28;20188;-72
2022/07/16 09:47:06;;;;;;;1.23;1.20;;;23.20;99.90;;;;;;5035257;28;20196;-70
2022/07/16 09:49:36;;;;;;;1.40;1.30;;;23.20;99.70;;;;;;5038204;28;20473;-69
2022/07/16 09:52:06;;;;;;;2.03;1.50;;;23.20;99.90;;;;;;5035596;28;20177;-69
2022/07/16 09:54:34;;;;;;;1.27;1.17;;;23.40;99.90;;;;;;5037006;28;20593;-69
2022/07/16 09:57:13;;;;;;;1.60;1.50;;;23.30;99.90;;;;;;5059175;28;20207;-69
2022/07/16 09:59:39;;;;;;;1.53;1.27;;;23.30;99.90;;;;;;5027030;28;20228;-68
2022/07/16 10:02:05;;;;;;;1.30;1.20;;;23.40;99.90;;;;;;5037547;28;20203;-67
2022/07/16 10:04:32;;;;;;;2.63;1.90;;;23.50;99.80;;;;;;5036058;28;20172;-68
2022/07/16 10:06:58;;;;;;;2.60;1.63;;;23.30;99.10;;;;;;5037526;28;20196;-71
2022/07/16 10:09:25;;;;;;;1.30;1.30;;;23.30;99.90;;;;;;5037839;28;20184;-68
2022/07/16 10:11:52;;;;;;;2.23;1.30;;;23.50;99.90;;;;;;5035895;28;20275;-71
2022/07/16 10:14:18;;;;;;;3.17;1.80;;;23.20;99.90;;;;;;5025228;28;20185;-71
2022/07/16 10:16:48;;;;;;;1.50;1.50;;;23.40;99.90;;;;;;5028084;28;20488;-70
2022/07/16 10:19:14;;;;;;;1.30;1.20;;;23.50;99.80;;;;;;5028355;28;20597;-70
2022/07/16 10:21:41;;;;;;;4.53;1.00;;;23.40;99.20;;;;;;5026338;28;20188;-71
2022/07/16 10:24:09;;;;;;;1.10;1.07;;;-40.00;71.60;;;;;;5027552;28;20259;-70
2022/07/16 10:26:35;;;;;;;1.70;0.70;;;-40.00;70.70;;;;;;5025680;28;20183;-70
2022/07/16 10:29:03;;;;;;;0.97;0.90;;;-40.00;67.40;;;;;;5034578;28;20183;-72
2022/07/16 10:34:40;;;;;;;1.83;1.43;;;-40.00;68.10;;;;;;5026979;28;20192;-69
2022/07/16 10:37:11;;;;;;;4.90;1.50;;;-40.00;64.90;;;;;;5032063;28;20287;-70
2022/07/16 10:40:12;;;;;;;2.67;0.93;;;-40.00;61.40;;;;;;5035267;28;20203;-69
2022/07/16 10:42:39;;;;;;;1.10;1.00;;;-40.00;62.60;;;;;;4994291;28;20284;-69
2022/07/16 10:45:05;;;;;;;0.80;0.70;;;-40.00;61.50;;;;;;5048499;28;20204;-69
2022/07/16 10:48:03;;;;;;;1.93;0.80;;;-40.00;59.10;;;;;;5036707;28;20172;-69
2022/07/16 10:50:29;;;;;;;1.57;1.17;;;-39.90;59.30;;;;;;5010528;28;20196;-70
2022/07/16 10:52:55;;;;;;;0.93;0.50;;;-30.30;67.80;;;;;;5035890;28;20176;-73
2022/07/16 10:55:38;;;;;;;1.90;1.27;;;-40.00;60.70;;;;;;5035876;28;20188;-69
2022/07/16 10:58:05;;;;;;;1.23;1.23;;;-29.80;64.70;;;;;;5035947;28;20576;-73
2022/07/16 11:00:31;;;;;;;7.07;5.67;;;-31.50;64.60;;;;;;5031603;28;20184;-69
2022/07/16 11:02:59;;;;;;;2.77;2.43;;;-34.30;60.50;;;;;;5037283;28;20651;-68
2022/07/16 11:05:27;;;;;;;1.43;1.37;;;-34.10;61.80;;;;;;5032433;28;20596;-71
2022/07/16 11:07:53;;;;;;;1.50;1.40;;;-40.00;55.60;;;;;;5035102;28;20213;-69
2022/07/16 11:10:23;;;;;;;2.23;2.03;;;-35.00;56.40;;;;;;5028502;28;20611;-68
2022/07/16 11:12:49;;;;;;;1.30;1.20;;;-40.00;54.20;;;;;;5026782;28;20250;-69
2022/07/16 11:15:14;;;;;;;1.37;1.23;;;-34.50;56.70;;;;;;5026706;28;20182;-70
2022/07/16 11:17:40;;;;;;;4.13;3.00;;;-29.70;57.60;;;;;;5024480;28;20189;-70
2022/07/16 11:20:09;;;;;;;2.03;1.80;;;-30.30;59.60;;;;;;5036160;28;20546;-70
2022/07/16 11:22:35;;;;;;;1.40;1.10;;;-29.00;60.00;;;;;;5030521;28;20258;-71
2022/07/16 11:25:05;;;;;;;1.07;0.90;;;-25.60;62.60;;;;;;5026835;28;20169;-76
2022/07/16 11:27:33;;;;;;;0.93;0.80;;;-27.10;59.00;;;;;;5025577;28;20256;-70
2022/07/16 11:30:07;;;;;;;1.50;1.30;;;-26.90;60.20;;;;;;5028382;28;20181;-70
2022/07/16 11:32:40;;;;;;;2.70;1.10;;;-23.90;60.30;;;;;;5034170;28;20176;-69
2022/07/16 11:35:06;;;;;;;1.40;1.30;;;-24.60;58.10;;;;;;5031460;28;20183;-69
2022/07/16 11:37:52;;;;;;;1.90;0.90;;;-22.30;61.80;;;;;;5026126;28;20174;-70
2022/07/16 11:40:18;;;;;;;1.77;1.00;;;-23.00;62.00;;;;;;5034204;28;20420;-71
2022/07/16 11:42:56;;;;;;;1.97;0.90;;;-31.20;54.50;;;;;;5022943;28;20655;-70
2022/07/16 11:45:22;;;;;;;1.83;1.67;;;-25.30;57.70;;;;;;5023162;28;20263;-70
2022/07/16 11:48:11;;;;;;;2.10;1.17;;;-22.30;59.00;;;;;;5035647;28;20519;-69
2022/07/16 11:50:36;;;;;;;2.30;0.90;;;-23.00;57.10;;;;;;5034268;28;20580;-72
2022/07/16 11:53:02;;;;;;;1.80;1.03;;;-24.60;56.00;;;;;;5035492;28;20272;-70
2022/07/16 11:55:28;;;;;;;0.77;0.73;;;-38.20;49.60;;;;;;5025635;28;20176;-70
2022/07/16 11:57:53;;;;;;;5.00;2.07;;;-34.30;51.60;;;;;;5025656;28;20205;-71
2022/07/16 12:00:19;;;;;;;1.10;1.10;;;-40.00;46.80;;;;;;5023372;28;20176;-69
2022/07/16 12:02:45;;;;;;;1.00;0.90;;;-40.00;47.80;;;;;;5024571;28;20644;-68
2022/07/16 12:05:11;;;;;;;1.23;1.13;;;-40.00;47.80;;;;;;5022920;28;20173;-69
2022/07/16 12:07:37;;;;;;;1.02;0.80;;;-40.00;43.00;;;;;;5034650;28;20226;-68
2022/07/16 12:10:06;;;;;;;1.60;1.08;;;-40.00;40.10;;;;;;5033496;28;20558;-70
2022/07/16 12:12:36;;;;;;;1.20;1.20;;;-40.00;39.20;;;;;;5033276;28;20173;-69
2022/07/16 12:15:12;;;;;;;1.52;1.08;;;-40.00;36.90;;;;;;5034787;28;20668;-69
2022/07/16 12:17:45;;;;;;;1.45;1.35;;;-40.00;36.00;;;;;;5032703;28;20491;-69
2022/07/16 12:20:27;;;;;;;3.05;1.58;;;-40.00;38.00;;;;;;5032873;28;20169;-69
2022/07/16 12:23:03;;;;;;;2.97;1.27;;;-40.00;35.30;;;;;;5037842;28;20219;-73
2022/07/16 12:25:39;;;;;;;1.40;1.30;;;-40.00;31.70;;;;;;5033770;28;20168;-69
2022/07/16 12:28:21;;;;;;;1.17;1.08;;;-40.00;32.20;;;;;;5034111;28;20188;-69
2022/07/16 12:30:55;;;;;;;2.55;1.30;;;-40.00;33.30;;;;;;5030339;28;20476;-69
2022/07/16 12:33:27;;;;;;;4.15;1.05;;;-40.00;35.10;;;;;;5035413;28;20252;-69
2022/07/16 12:36:03;;;;;;;2.53;1.45;;;-40.00;36.40;;;;;;5031166;28;20169;-70
2022/07/16 12:38:55;;;;;;;1.70;1.60;;;-40.00;37.00;;;;;;5025868;28;20246;-69
2022/07/16 12:41:34;;;;;;;1.33;1.23;;;-40.00;34.60;;;;;;5036546;28;20183;-69
2022/07/16 12:44:03;;;;;;;1.50;1.40;;;-40.00;35.20;;;;;;5036337;28;20226;-69
2022/07/16 12:46:41;;;;;;;2.05;1.85;;;3.80;57.70;;;;;;5038463;28;20192;-70
2022/07/16 12:49:10;;;;;;;1.98;1.77;;;28.60;72.70;;;;;;5039006;28;20565;-70